Terminal Aerodrome Forecast
Issued by NWS Mt. Holly, NJ

Home | Current Version | Previous Version | Text Only | Print | Product List | Glossary On
Versions: 1 2 3 4 5 6 7 8 9 10 11 12 13 14 15 16 17 18
000
FTAK31 PANC 311741
TAFABE
TAF
PABE 311741Z 3118/0118 03015G25KT P6SM BKN200
     FM312100 03020G28KT P6SM SCT030 BKN060
     FM010900 03020G28KT 4SM -SHSN BLSN OVC025=

USA.gov is the U.S. government's official web portal to all federal, state and local government web resources and services.